createdAt,value
2019-01-21T00:14:50.485Z,1004.89
2019-01-21T00:43:19.308Z,1004.96
2019-01-21T01:11:54.137Z,1005.06
2019-01-21T01:40:29.519Z,1005.13
2019-01-21T02:09:03.886Z,1005.13
2019-01-21T02:37:39.886Z,1004.98
2019-01-21T03:06:16.169Z,1004.98
2019-01-21T03:34:51.225Z,1004.88
2019-01-21T04:03:25.774Z,1004.97
2019-01-21T04:32:01.190Z,1004.88
2019-01-21T05:00:38.514Z,1004.87
2019-01-21T05:29:14.108Z,1004.9
2019-01-21T05:57:50.854Z,1005.05
2019-01-21T06:26:26.408Z,1005.17
2019-01-21T06:55:01.594Z,1005.27
2019-01-21T07:23:36.357Z,1005.4
2019-01-21T07:52:12.904Z,1005.46
2019-01-21T08:20:49.868Z,1005.56
2019-01-21T08:49:31.042Z,1005.56
2019-01-21T09:17:53.773Z,1005.57
2019-01-21T09:46:30.394Z,1005.58
2019-01-21T10:15:07.675Z,1005.42
2019-01-21T10:43:44.057Z,1005.13
2019-01-21T11:12:23.584Z,1004.89
2019-01-21T11:41:04.121Z,1004.49
2019-01-21T12:09:38.272Z,1004.01
2019-01-21T12:38:14.763Z,1003.75
2019-01-21T13:06:50.967Z,1003.08
2019-01-21T13:35:30.935Z,1002.87
2019-01-21T14:04:11.363Z,1002.56
2019-01-21T14:32:43.831Z,1002.41
2019-01-21T15:01:17.658Z,1002.29
2019-01-21T15:29:51.382Z,1002.41
2019-01-21T15:58:26.852Z,1002.29
2019-01-21T16:26:57.884Z,1002.11
2019-01-21T16:55:33.094Z,1002.03
2019-01-21T17:24:06.190Z,1002.04
2019-01-21T17:52:35.821Z,1002.02
2019-01-21T18:21:05.586Z,1001.82
2019-01-21T18:49:43.339Z,1001.45
2019-01-21T19:18:14.798Z,1001.75
2019-01-21T19:46:48.840Z,1001.97
2019-01-21T20:15:24.435Z,1001.9
2019-01-21T20:43:59.740Z,1001.8
2019-01-21T21:12:35.040Z,1001.53
2019-01-21T21:41:09.626Z,1001.39
2019-01-21T22:09:47.410Z,1001.19
2019-01-21T22:38:21.411Z,1000.96
2019-01-21T23:06:50.183Z,1000.71
2019-01-21T23:35:27.787Z,1000.64
